Time;durP1;ratioP1;P1;durP2;ratioP2;P2;SDS_P1;SDS_P2;PMS_P1;PMS_P2;Temp;Humidity;BMP_temperature;BMP_pressure;BME280_temperature;BME280_humidity;BME280_pressure;Samples;Min_cycle;Max_cycle;Signal;HPM_P1;HPM_P2
2021/11/05 05:01:34;;;;;;;6.43;5.80;;;7.60;99.90;;;;;;5476923;23;20496;-70
2021/11/05 05:04:01;;;;;;;6.43;5.93;;;7.60;99.90;;;;;;4996911;28;20482;-69
2021/11/05 05:06:28;;;;;;;6.23;5.70;;;7.60;99.90;;;;;;4997086;28;20454;-70
2021/11/05 05:08:55;;;;;;;5.90;5.50;;;7.50;99.90;;;;;;4996895;28;20466;-70
2021/11/05 05:11:21;;;;;;;5.80;5.40;;;7.60;99.90;;;;;;4996548;28;20474;-69
2021/11/05 05:13:48;;;;;;;6.23;5.80;;;7.60;99.90;;;;;;4997158;28;20480;-68
2021/11/05 05:16:15;;;;;;;5.70;5.30;;;7.60;99.90;;;;;;4996136;28;20461;-70
2021/11/05 05:18:44;;;;;;;5.30;5.00;;;7.60;99.90;;;;;;4996392;28;20995;-70
2021/11/05 05:21:11;;;;;;;7.73;6.33;;;7.70;99.90;;;;;;4996404;28;20482;-70
2021/11/05 05:23:38;;;;;;;5.33;4.93;;;7.70;99.90;;;;;;4995995;28;20493;-70
2021/11/05 05:26:05;;;;;;;5.10;4.70;;;7.80;99.90;;;;;;4996152;28;20888;-69
2021/11/05 05:28:32;;;;;;;5.00;4.70;;;7.70;99.90;;;;;;4996351;28;20458;-69
2021/11/05 05:30:59;;;;;;;4.80;4.40;;;7.70;99.90;;;;;;4996082;28;20533;-69
2021/11/05 05:33:26;;;;;;;5.00;4.63;;;7.80;99.90;;;;;;4996193;28;20813;-69
2021/11/05 05:35:54;;;;;;;3.93;3.73;;;7.80;99.90;;;;;;4996074;28;20454;-70
2021/11/05 05:38:21;;;;;;;4.53;4.23;;;7.80;99.90;;;;;;4995808;28;20942;-70
2021/11/05 05:40:48;;;;;;;5.10;4.77;;;7.80;99.90;;;;;;4996102;28;20474;-70
2021/11/05 05:43:15;;;;;;;4.97;4.60;;;7.80;99.90;;;;;;4998483;28;20492;-70
2021/11/05 05:45:41;;;;;;;3.50;3.30;;;7.80;99.90;;;;;;5001389;28;20481;-69
2021/11/05 05:48:09;;;;;;;4.47;4.17;;;7.90;99.90;;;;;;5000580;28;20820;-70
2021/11/05 05:50:36;;;;;;;4.67;4.27;;;7.90;99.90;;;;;;4998560;28;20473;-70
2021/11/05 05:53:04;;;;;;;3.90;3.70;;;7.90;99.90;;;;;;5009389;28;20449;-69
2021/11/05 05:55:31;;;;;;;4.77;4.47;;;7.90;99.90;;;;;;5004464;28;20446;-69
2021/11/05 05:57:58;;;;;;;4.70;4.40;;;8.00;99.90;;;;;;4995384;28;20965;-69
2021/11/05 06:00:25;;;;;;;4.10;3.90;;;8.20;99.90;;;;;;4995641;28;20454;-69
2021/11/05 06:02:51;;;;;;;4.37;4.07;;;8.40;99.90;;;;;;4995834;28;20454;-69
2021/11/05 06:05:18;;;;;;;4.37;4.07;;;8.60;99.90;;;;;;4995422;28;20988;-68
2021/11/05 06:07:45;;;;;;;4.00;3.70;;;8.70;99.90;;;;;;4995637;28;20463;-69
2021/11/05 06:10:13;;;;;;;4.63;4.30;;;8.80;99.90;;;;;;4995304;28;20461;-68
2021/11/05 06:12:40;;;;;;;5.20;3.50;;;8.90;99.90;;;;;;4995339;28;20977;-69
2021/11/05 06:15:08;;;;;;;2.90;2.80;;;9.00;99.90;;;;;;4995687;28;20457;-69
2021/11/05 06:17:34;;;;;;;3.10;2.90;;;9.10;99.90;;;;;;4995496;28;20458;-68
2021/11/05 06:20:02;;;;;;;3.30;3.17;;;9.10;99.90;;;;;;4995404;28;20458;-68
2021/11/05 06:22:28;;;;;;;3.83;3.53;;;9.20;99.90;;;;;;4994815;28;21024;-69
2021/11/05 06:24:57;;;;;;;4.10;3.90;;;9.20;99.90;;;;;;4995137;28;20872;-70
2021/11/05 06:27:25;;;;;;;4.47;3.67;;;9.10;99.90;;;;;;4995696;28;20466;-70
2021/11/05 06:29:51;;;;;;;3.70;3.50;;;9.00;99.90;;;;;;4996108;28;20458;-69
2021/11/05 06:32:18;;;;;;;4.00;3.70;;;8.90;99.90;;;;;;4995730;28;21011;-71
2021/11/05 06:34:45;;;;;;;4.07;3.87;;;8.90;99.90;;;;;;4995783;28;20450;-69
2021/11/05 06:37:12;;;;;;;3.77;3.30;;;8.80;99.90;;;;;;4995485;28;20856;-70
2021/11/05 06:39:38;;;;;;;4.57;4.27;;;8.70;99.90;;;;;;4995305;28;20458;-69
2021/11/05 06:42:06;;;;;;;4.27;3.87;;;8.60;99.90;;;;;;4995343;28;20478;-69
2021/11/05 06:44:34;;;;;;;6.83;4.20;;;8.50;99.90;;;;;;4995687;28;20829;-69
2021/11/05 06:47:01;;;;;;;4.50;4.20;;;8.50;99.90;;;;;;4995053;28;20481;-69
2021/11/05 06:49:28;;;;;;;4.33;4.03;;;8.40;99.90;;;;;;4995256;28;20454;-69
2021/11/05 06:51:55;;;;;;;4.40;4.17;;;8.40;99.90;;;;;;4995025;28;20490;-69
2021/11/05 06:54:22;;;;;;;3.60;3.20;;;8.40;99.90;;;;;;4995131;28;21045;-69
2021/11/05 06:56:50;;;;;;;4.23;3.93;;;8.40;99.90;;;;;;4995058;28;20463;-68
2021/11/05 06:59:17;;;;;;;4.10;3.83;;;8.30;99.90;;;;;;4994903;28;20464;-69
2021/11/05 07:01:46;;;;;;;3.83;3.57;;;8.30;99.90;;;;;;4994293;28;20493;-69
2021/11/05 07:04:13;;;;;;;4.47;4.17;;;8.30;99.90;;;;;;4995267;28;20778;-69
2021/11/05 07:06:45;;;;;;;4.40;4.10;;;8.20;99.90;;;;;;4994755;28;20458;-69
2021/11/05 07:09:12;;;;;;;4.67;4.27;;;8.20;99.90;;;;;;4996647;28;20441;-68
2021/11/05 07:11:39;;;;;;;5.03;4.30;;;8.20;99.90;;;;;;4998295;28;21092;-69
2021/11/05 07:14:06;;;;;;;5.27;4.87;;;8.30;99.90;;;;;;4998671;28;20462;-69
2021/11/05 07:16:33;;;;;;;4.73;4.30;;;8.30;99.90;;;;;;4998863;28;20801;-67
2021/11/05 07:19:01;;;;;;;5.17;4.03;;;8.30;99.90;;;;;;4998475;28;20462;-69
2021/11/05 07:21:28;;;;;;;4.67;4.30;;;8.30;99.90;;;;;;4998354;28;20482;-69
2021/11/05 07:24:00;;;;;;;4.77;4.37;;;8.40;99.90;;;;;;4999418;28;20481;-69
2021/11/05 07:26:33;;;;;;;5.53;4.27;;;8.40;99.90;;;;;;5003924;28;20441;-68
2021/11/05 07:29:00;;;;;;;4.30;4.03;;;8.40;99.90;;;;;;5000034;28;20439;-68
2021/11/05 07:31:27;;;;;;;4.43;4.13;;;8.40;99.90;;;;;;4999467;28;20859;-69
2021/11/05 07:33:53;;;;;;;4.57;4.27;;;8.40;99.90;;;;;;4999591;28;20456;-69
2021/11/05 07:36:22;;;;;;;3.83;3.63;;;8.40;99.90;;;;;;4999002;28;20445;-69
2021/11/05 07:38:48;;;;;;;4.83;3.90;;;8.40;99.90;;;;;;4998457;28;20937;-68
2021/11/05 07:41:15;;;;;;;3.77;3.53;;;8.40;99.90;;;;;;4999603;28;20524;-69
2021/11/05 07:43:42;;;;;;;4.27;3.97;;;8.40;99.90;;;;;;4999003;28;20457;-70
2021/11/05 07:46:08;;;;;;;4.13;3.83;;;8.40;99.90;;;;;;4999048;28;20485;-69
2021/11/05 07:48:35;;;;;;;3.83;3.60;;;8.40;99.90;;;;;;4998397;28;20462;-69
2021/11/05 07:51:02;;;;;;;3.80;3.47;;;8.40;99.90;;;;;;4998092;28;21000;-68
2021/11/05 07:53:30;;;;;;;3.67;3.47;;;8.50;99.90;;;;;;4998499;28;20461;-69
2021/11/05 07:55:56;;;;;;;4.50;4.17;;;8.50;99.90;;;;;;5000050;28;20949;-69
2021/11/05 07:58:23;;;;;;;3.30;3.00;;;8.50;99.90;;;;;;4998405;28;20460;-68
2021/11/05 08:00:50;;;;;;;3.73;3.37;;;8.60;99.90;;;;;;4998060;28;20601;-69
2021/11/05 08:03:17;;;;;;;3.40;3.20;;;8.60;99.90;;;;;;4998281;28;20442;-69
2021/11/05 08:05:44;;;;;;;3.23;2.90;;;8.60;99.90;;;;;;4998069;28;21073;-69
2021/11/05 08:08:11;;;;;;;5.90;3.10;;;8.70;99.90;;;;;;5002089;28;20438;-69
2021/11/05 08:10:39;;;;;;;2.80;2.60;;;8.70;99.90;;;;;;4997908;28;20836;-70
2021/11/05 08:13:05;;;;;;;3.57;3.27;;;8.80;99.90;;;;;;4998319;28;20469;-69
2021/11/05 08:15:32;;;;;;;3.50;3.30;;;8.80;99.90;;;;;;4998158;28;20453;-70
2021/11/05 08:17:59;;;;;;;3.87;3.57;;;8.90;99.90;;;;;;4997943;28;20462;-70
2021/11/05 08:20:27;;;;;;;3.60;3.30;;;8.90;99.90;;;;;;4997838;28;20477;-70
2021/11/05 08:22:54;;;;;;;3.50;3.30;;;9.00;99.90;;;;;;4997435;28;20457;-69
2021/11/05 08:25:21;;;;;;;3.93;3.53;;;9.10;99.90;;;;;;4997696;28;20489;-69
2021/11/05 08:27:49;;;;;;;3.90;3.60;;;9.20;99.90;;;;;;4997358;28;20461;-68
2021/11/05 08:30:20;;;;;;;3.47;3.17;;;9.30;99.90;;;;;;4997517;28;20454;-70
2021/11/05 08:32:47;;;;;;;4.33;3.93;;;9.30;99.90;;;;;;4997778;28;20439;-69
2021/11/05 08:35:14;;;;;;;4.53;4.13;;;9.30;99.90;;;;;;4997465;28;20510;-69
2021/11/05 08:37:42;;;;;;;4.27;3.50;;;9.30;99.90;;;;;;4997263;28;20552;-69
2021/11/05 08:40:10;;;;;;;4.53;4.23;;;9.30;99.90;;;;;;4997629;28;20465;-68
2021/11/05 08:42:37;;;;;;;4.00;3.80;;;9.30;99.90;;;;;;4997061;28;20474;-68
2021/11/05 08:45:07;;;;;;;4.07;3.83;;;9.30;99.90;;;;;;4996701;28;21091;-68
2021/11/05 08:47:36;;;;;;;5.17;4.13;;;9.20;99.90;;;;;;4997888;28;20905;-70
2021/11/05 08:50:05;;;;;;;4.70;4.30;;;9.10;99.90;;;;;;4997810;28;20455;-69
2021/11/05 08:52:32;;;;;;;4.80;4.50;;;9.20;99.90;;;;;;4997689;28;20479;-68
2021/11/05 08:55:04;;;;;;;4.67;4.37;;;9.20;99.90;;;;;;4997616;28;20955;-69
2021/11/05 08:57:31;;;;;;;4.20;3.90;;;9.20;99.90;;;;;;5004178;28;20518;-69
2021/11/05 08:59:58;;;;;;;5.03;4.73;;;9.10;99.90;;;;;;4999824;28;20450;-69
2021/11/05 09:02:27;;;;;;;4.80;4.33;;;9.10;99.90;;;;;;4996603;28;20489;-69
2021/11/05 09:04:53;;;;;;;4.03;3.83;;;9.00;99.90;;;;;;4996977;28;20843;-68
2021/11/05 09:07:20;;;;;;;4.40;4.10;;;9.10;99.90;;;;;;4996845;28;20820;-68
2021/11/05 09:09:47;;;;;;;4.40;4.07;;;9.20;99.90;;;;;;4997254;28;20454;-69
2021/11/05 09:12:14;;;;;;;3.80;3.60;;;9.30;99.90;;;;;;4996902;28;20474;-68
2021/11/05 09:14:40;;;;;;;3.70;3.50;;;9.40;99.90;;;;;;4997257;28;20446;-69
2021/11/05 09:17:07;;;;;;;4.03;3.73;;;9.50;99.90;;;;;;4997059;28;20450;-70
2021/11/05 09:19:35;;;;;;;4.80;4.37;;;9.70;99.90;;;;;;4996667;28;20467;-68
2021/11/05 09:22:02;;;;;;;3.60;3.40;;;9.80;99.90;;;;;;4997000;28;20863;-69
2021/11/05 09:24:29;;;;;;;4.73;3.90;;;9.90;99.90;;;;;;4997266;28;20454;-69
2021/11/05 09:26:56;;;;;;;4.07;3.87;;;10.30;99.90;;;;;;4996241;28;20868;-68
2021/11/05 09:29:23;;;;;;;3.97;3.67;;;11.10;99.90;;;;;;4996097;28;20463;-68
2021/11/05 09:31:50;;;;;;;3.93;3.63;;;11.70;99.90;;;;;;4995292;28;20478;-68
2021/11/05 09:34:16;;;;;;;4.57;3.83;;;11.90;99.90;;;;;;4995858;28;20463;-68
2021/11/05 09:36:44;;;;;;;4.57;4.17;;;12.00;99.90;;;;;;4995605;28;20933;-69
2021/11/05 09:39:11;;;;;;;4.63;4.33;;;12.10;99.90;;;;;;4995820;28;20499;-69
2021/11/05 09:41:38;;;;;;;4.97;4.67;;;12.00;99.90;;;;;;4995697;28;20475;-69
2021/11/05 09:44:05;;;;;;;5.07;4.77;;;11.80;99.90;;;;;;4995864;28;20459;-69
2021/11/05 09:46:32;;;;;;;5.53;5.13;;;11.50;99.90;;;;;;4995547;28;20479;-69
2021/11/05 09:48:59;;;;;;;5.63;5.13;;;11.40;99.90;;;;;;4995653;28;20474;-69
2021/11/05 09:51:26;;;;;;;6.00;5.50;;;11.30;99.90;;;;;;4995624;28;20478;-70
2021/11/05 09:53:54;;;;;;;5.67;5.17;;;11.10;99.90;;;;;;4995599;28;20459;-69
2021/11/05 09:56:21;;;;;;;6.93;6.33;;;10.90;99.90;;;;;;4995462;28;20455;-69
2021/11/05 09:58:48;;;;;;;6.23;5.83;;;10.70;99.90;;;;;;4995522;28;20481;-69
2021/11/05 10:01:14;;;;;;;6.90;6.37;;;10.50;99.90;;;;;;4995231;28;20486;-69
2021/11/05 10:03:41;;;;;;;6.93;6.20;;;10.40;99.90;;;;;;4995475;28;20451;-69
2021/11/05 10:06:12;;;;;;;6.97;6.47;;;10.30;99.90;;;;;;4995421;28;20478;-69
2021/11/05 10:08:39;;;;;;;7.20;6.60;;;10.20;99.90;;;;;;4995303;28;20509;-69
2021/11/05 10:11:27;;;;;;;7.37;6.83;;;10.10;99.90;;;;;;4995031;28;20482;-69
2021/11/05 10:13:55;;;;;;;7.30;6.80;;;10.20;99.90;;;;;;4998784;28;20479;-69
2021/11/05 10:16:24;;;;;;;7.03;6.43;;;10.30;99.90;;;;;;4998755;28;20455;-70
2021/11/05 10:18:56;;;;;;;7.70;7.10;;;10.50;99.90;;;;;;4998758;28;20578;-70
2021/11/05 10:21:23;;;;;;;7.97;7.33;;;10.60;99.90;;;;;;4994979;28;20482;-70
2021/11/05 10:23:50;;;;;;;7.33;6.73;;;10.60;99.90;;;;;;4995158;28;20520;-70
2021/11/05 10:26:25;;;;;;;7.53;6.80;;;10.70;99.90;;;;;;4995073;28;20469;-70
2021/11/05 10:28:52;;;;;;;7.80;7.20;;;10.80;99.90;;;;;;4994876;28;20448;-69
2021/11/05 10:31:19;;;;;;;7.87;7.27;;;11.00;99.90;;;;;;4995008;28;20875;-70
2021/11/05 10:33:47;;;;;;;8.07;7.27;;;11.20;99.90;;;;;;4994782;28;20484;-69
2021/11/05 10:36:17;;;;;;;7.40;6.80;;;11.30;99.90;;;;;;4994628;28;20462;-71
2021/11/05 10:38:46;;;;;;;6.77;6.20;;;11.40;99.90;;;;;;4995272;28;20454;-70
2021/11/05 10:41:15;;;;;;;7.60;6.80;;;11.30;99.90;;;;;;4995310;28;20478;-70
2021/11/05 10:43:46;;;;;;;6.73;6.23;;;11.40;99.90;;;;;;4994049;28;20454;-71
2021/11/05 10:46:26;;;;;;;7.77;7.17;;;11.50;99.90;;;;;;4995375;28;20471;-71
2021/11/05 10:48:53;;;;;;;8.10;7.40;;;11.40;99.90;;;;;;4995008;28;20906;-71
2021/11/05 10:51:22;;;;;;;8.13;7.43;;;11.40;99.90;;;;;;4995116;28;20484;-71
2021/11/05 10:53:49;;;;;;;7.63;7.03;;;11.40;99.90;;;;;;4995025;28;20481;-70
2021/11/05 10:56:18;;;;;;;10.23;9.27;;;11.30;99.90;;;;;;4995052;28;20457;-70
2021/11/05 10:58:55;;;;;;;9.80;9.00;;;11.20;99.90;;;;;;4995165;28;20451;-71
2021/11/05 11:01:24;;;;;;;8.20;7.50;;;11.10;99.90;;;;;;5000623;28;20487;-71
2021/11/05 11:03:54;;;;;;;8.10;7.40;;;11.20;99.90;;;;;;4995109;28;20457;-72
2021/11/05 11:06:23;;;;;;;8.50;7.70;;;11.20;99.90;;;;;;4994784;28;20463;-71
2021/11/05 11:08:51;;;;;;;8.60;7.90;;;11.30;99.90;;;;;;4994338;28;20798;-71
2021/11/05 11:11:25;;;;;;;7.60;7.00;;;11.30;99.90;;;;;;4994886;28;20496;-71
2021/11/05 11:13:55;;;;;;;8.20;7.60;;;11.30;99.90;;;;;;4994720;28;20454;-71
2021/11/05 11:16:26;;;;;;;7.70;7.20;;;11.50;99.90;;;;;;4994982;28;20449;-70
2021/11/05 11:18:59;;;;;;;7.93;7.20;;;11.50;99.90;;;;;;4995206;28;20459;-70
2021/11/05 11:21:27;;;;;;;8.53;7.83;;;11.50;99.90;;;;;;4994425;28;20489;-69
2021/11/05 11:23:55;;;;;;;8.13;7.50;;;11.50;99.90;;;;;;4994353;28;20454;-71
2021/11/05 11:26:22;;;;;;;8.63;7.93;;;11.50;99.90;;;;;;4994146;28;21017;-69
2021/11/05 11:28:49;;;;;;;8.67;7.97;;;11.40;99.90;;;;;;4994438;28;20473;-69
2021/11/05 11:31:18;;;;;;;12.37;11.27;;;11.50;99.90;;;;;;4994389;28;20483;-70
2021/11/05 11:33:47;;;;;;;12.00;11.00;;;11.70;99.90;;;;;;4994407;28;20554;-70
2021/11/05 11:36:15;;;;;;;9.70;8.90;;;11.80;99.90;;;;;;4993953;28;20958;-71
2021/11/05 11:38:42;;;;;;;9.00;8.20;;;12.00;99.90;;;;;;4995007;28;20447;-70
2021/11/05 11:41:11;;;;;;;9.00;8.30;;;12.00;99.90;;;;;;4994229;28;20492;-70
2021/11/05 11:43:39;;;;;;;8.60;7.97;;;12.20;99.90;;;;;;4994461;28;20644;-70
2021/11/05 11:46:06;;;;;;;8.30;7.70;;;12.30;99.90;;;;;;4993889;28;20843;-70
2021/11/05 11:48:50;;;;;;;8.17;7.47;;;12.50;99.90;;;;;;4994051;28;20465;-70
2021/11/05 11:51:27;;;;;;;8.87;8.20;;;12.90;99.90;;;;;;4993963;28;20474;-70
2021/11/05 11:53:55;;;;;;;7.70;6.90;;;13.00;99.90;;;;;;4994261;28;20450;-70
2021/11/05 11:56:28;;;;;;;8.53;7.70;;;13.00;99.90;;;;;;4997549;28;20968;-69
2021/11/05 11:58:56;;;;;;;7.30;6.80;;;13.00;99.90;;;;;;4999022;28;20450;-69
2021/11/05 12:01:25;;;;;;;7.73;7.17;;;13.10;99.90;;;;;;4998601;28;20494;-70
2021/11/05 12:03:59;;;;;;;8.00;7.47;;;12.90;99.90;;;;;;4998101;28;20442;-70
2021/11/05 12:06:26;;;;;;;8.93;8.13;;;12.70;99.90;;;;;;4998205;28;20470;-69
2021/11/05 12:08:53;;;;;;;7.60;7.10;;;12.70;99.90;;;;;;4997673;28;20460;-70
2021/11/05 12:11:27;;;;;;;7.40;6.80;;;12.60;99.90;;;;;;4997336;28;20479;-69
2021/11/05 12:13:57;;;;;;;7.00;6.40;;;12.60;99.90;;;;;;4997371;28;20922;-69
2021/11/05 12:16:27;;;;;;;8.50;7.63;;;12.60;99.90;;;;;;4997694;28;20478;-70
2021/11/05 12:19:18;;;;;;;7.47;6.87;;;12.60;99.90;;;;;;4997955;28;20559;-71
2021/11/05 12:21:49;;;;;;;8.30;7.50;;;12.70;99.90;;;;;;4997829;28;20480;-70
2021/11/05 12:24:28;;;;;;;8.70;8.00;;;12.80;99.90;;;;;;4997412;28;20803;-71
2021/11/05 12:26:58;;;;;;;8.97;8.27;;;12.80;99.90;;;;;;4997127;28;20506;-70
2021/11/05 12:30:04;;;;;;;9.90;9.10;;;12.80;99.90;;;;;;4997029;28;20907;-70
2021/11/05 12:32:36;;;;;;;8.50;7.70;;;12.60;99.90;;;;;;4997079;28;20574;-70
2021/11/05 12:35:27;;;;;;;8.80;8.10;;;12.40;99.90;;;;;;4997236;28;20803;-71
2021/11/05 12:38:08;;;;;;;9.60;8.70;;;12.40;99.90;;;;;;4995042;28;20800;-69
2021/11/05 12:40:40;;;;;;;9.27;8.50;;;12.20;99.90;;;;;;4997083;28;20528;-70
2021/11/05 12:43:28;;;;;;;9.47;8.63;;;11.90;99.90;;;;;;4997180;28;20439;-70
2021/11/05 12:45:57;;;;;;;10.20;9.40;;;11.70;99.90;;;;;;4997136;28;20455;-70
2021/11/05 12:49:01;;;;;;;9.83;9.03;;;11.50;99.90;;;;;;4996748;28;20445;-70
2021/11/05 12:51:42;;;;;;;9.20;8.50;;;11.50;99.90;;;;;;4998472;28;20466;-69
2021/11/05 12:54:17;;;;;;;17.90;13.90;;;11.30;99.90;;;;;;4997930;28;20525;-71
2021/11/05 12:56:50;;;;;;;77.63;43.03;;;11.10;99.90;;;;;;4996731;28;20983;-70
2021/11/05 12:59:18;;;;;;;15.70;14.17;;;11.00;99.90;;;;;;4997148;28;20499;-70
2021/11/05 13:01:52;;;;;;;14.40;12.90;;;10.90;99.90;;;;;;4997125;28;20487;-70
2021/11/05 13:04:19;;;;;;;14.10;12.63;;;10.80;99.90;;;;;;4997154;28;20825;-70
2021/11/05 13:06:54;;;;;;;14.80;13.30;;;10.80;99.90;;;;;;4995977;28;20486;-70
2021/11/05 13:09:37;;;;;;;13.53;11.57;;;10.70;99.90;;;;;;4996810;28;20448;-70
2021/11/05 13:12:07;;;;;;;14.57;13.07;;;10.70;99.90;;;;;;4996705;28;20475;-70
2021/11/05 13:14:40;;;;;;;17.57;14.60;;;10.80;99.90;;;;;;4996806;28;20443;-70
2021/11/05 13:17:11;;;;;;;25.50;16.50;;;10.70;99.90;;;;;;4996574;28;20439;-70
2021/11/05 13:19:43;;;;;;;15.63;14.07;;;10.60;99.90;;;;;;4996208;28;20440;-70
2021/11/05 13:22:11;;;;;;;13.27;11.90;;;10.50;99.90;;;;;;4996293;28;20509;-71
2021/11/05 13:24:38;;;;;;;15.70;14.20;;;10.50;99.90;;;;;;4996505;28;20463;-70
2021/11/05 13:27:06;;;;;;;13.03;11.93;;;10.40;99.90;;;;;;4996827;28;20491;-70
2021/11/05 13:29:34;;;;;;;13.50;12.30;;;10.40;99.90;;;;;;4996300;28;20813;-71
2021/11/05 13:32:15;;;;;;;14.67;13.27;;;10.40;99.90;;;;;;4996143;28;20479;-70
2021/11/05 13:34:42;;;;;;;14.17;12.67;;;10.40;99.90;;;;;;4996276;28;20839;-70
2021/11/05 13:37:11;;;;;;;15.60;14.10;;;10.50;99.90;;;;;;4995923;28;20474;-70
2021/11/05 13:39:38;;;;;;;15.90;14.40;;;10.40;99.90;;;;;;4995957;28;20455;-70
2021/11/05 13:42:19;;;;;;;15.73;14.23;;;10.40;99.90;;;;;;4995724;28;20478;-70
2021/11/05 13:44:48;;;;;;;14.80;13.30;;;10.50;99.90;;;;;;4996777;28;20534;-70
2021/11/05 13:47:17;;;;;;;15.87;13.97;;;10.70;99.90;;;;;;4995484;28;20992;-69
2021/11/05 13:49:45;;;;;;;13.87;12.60;;;10.60;99.90;;;;;;4996652;28;20459;-70
2021/11/05 13:52:13;;;;;;;14.60;13.20;;;10.70;99.90;;;;;;4996744;28;20486;-70
2021/11/05 13:54:44;;;;;;;15.33;13.97;;;10.80;99.90;;;;;;4996616;28;20457;-70
2021/11/05 13:57:15;;;;;;;14.10;12.70;;;10.80;99.90;;;;;;4995985;28;20461;-70
2021/11/05 13:59:43;;;;;;;15.47;14.17;;;10.80;99.90;;;;;;4995838;28;20915;-70
2021/11/05 14:02:11;;;;;;;14.93;13.63;;;10.80;99.90;;;;;;4995514;28;20498;-70
2021/11/05 14:04:38;;;;;;;15.90;14.30;;;10.80;99.90;;;;;;4996299;28;20481;-70
2021/11/05 14:07:10;;;;;;;15.30;13.87;;;10.80;99.90;;;;;;4996036;28;20479;-69
2021/11/05 14:09:38;;;;;;;15.27;13.87;;;10.80;99.90;;;;;;4995924;28;20444;-70
2021/11/05 14:12:13;;;;;;;15.57;14.17;;;10.90;99.90;;;;;;4995633;28;20860;-70
2021/11/05 14:14:48;;;;;;;15.17;13.77;;;10.90;99.90;;;;;;4998381;28;20497;-69
2021/11/05 14:17:17;;;;;;;14.63;13.30;;;10.90;99.90;;;;;;4998344;28;20489;-70
2021/11/05 14:19:51;;;;;;;15.10;13.60;;;10.90;99.90;;;;;;4998088;28;20451;-70
2021/11/05 14:22:18;;;;;;;14.80;13.50;;;10.90;99.90;;;;;;5006681;28;20474;-70
2021/11/05 14:24:47;;;;;;;16.50;14.80;;;11.00;99.90;;;;;;5007773;28;20458;-69
2021/11/05 14:27:18;;;;;;;15.17;13.77;;;11.00;99.90;;;;;;5011927;28;20502;-70
2021/11/05 14:29:48;;;;;;;14.37;13.00;;;11.00;99.90;;;;;;5005597;28;20435;-71
2021/11/05 14:32:16;;;;;;;16.80;15.10;;;10.90;99.90;;;;;;4995203;28;20996;-69
2021/11/05 14:34:52;;;;;;;16.87;14.30;;;11.00;99.90;;;;;;4995268;28;20455;-69
2021/11/05 14:37:21;;;;;;;16.97;15.17;;;10.90;99.90;;;;;;4995728;28;20443;-70
2021/11/05 14:39:53;;;;;;;15.73;14.23;;;10.80;99.90;;;;;;4996911;28;20462;-70
2021/11/05 14:42:26;;;;;;;14.73;13.33;;;10.80;99.90;;;;;;4995742;28;20524;-70
2021/11/05 14:44:53;;;;;;;15.60;14.10;;;10.80;99.90;;;;;;4995506;28;20452;-70
2021/11/05 14:47:20;;;;;;;16.43;14.83;;;10.80;99.90;;;;;;4995312;28;20477;-70
2021/11/05 14:49:49;;;;;;;15.40;13.93;;;10.70;99.90;;;;;;4995627;28;20827;-69
2021/11/05 14:52:19;;;;;;;18.70;13.53;;;10.70;99.90;;;;;;4995187;28;20482;-70
2021/11/05 14:54:45;;;;;;;16.47;14.87;;;10.70;99.90;;;;;;4995027;28;20459;-69
2021/11/05 14:57:19;;;;;;;15.03;13.53;;;10.70;99.90;;;;;;4994778;28;20454;-69
2021/11/05 14:59:47;;;;;;;14.50;13.10;;;10.70;99.90;;;;;;4994753;28;20447;-71
2021/11/05 15:02:34;;;;;;;14.93;13.40;;;10.80;99.90;;;;;;4995533;28;20486;-70
2021/11/05 15:05:22;;;;;;;14.53;13.23;;;10.80;99.90;;;;;;4994809;28;20465;-70
2021/11/05 15:07:51;;;;;;;15.77;14.27;;;10.70;99.90;;;;;;4994833;28;20467;-70
2021/11/05 15:10:20;;;;;;;15.57;14.07;;;10.80;99.90;;;;;;4994593;28;20439;-70
2021/11/05 15:12:48;;;;;;;15.83;14.33;;;10.70;99.90;;;;;;4994774;28;20512;-70
2021/11/05 15:15:15;;;;;;;15.13;13.63;;;10.60;99.90;;;;;;4994890;28;20458;-70
2021/11/05 15:17:43;;;;;;;17.23;15.53;;;10.50;99.90;;;;;;4994724;28;20960;-71
2021/11/05 15:20:11;;;;;;;17.37;15.63;;;10.50;99.90;;;;;;4994766;28;20458;-70
2021/11/05 15:22:38;;;;;;;17.20;15.40;;;10.50;99.90;;;;;;4994900;28;20486;-71
2021/11/05 15:25:06;;;;;;;15.83;14.33;;;10.50;99.90;;;;;;4994699;28;20454;-69
2021/11/05 15:27:36;;;;;;;17.20;15.50;;;10.60;99.90;;;;;;4994545;28;20981;-69
2021/11/05 15:30:07;;;;;;;17.13;15.53;;;10.50;99.90;;;;;;4996502;28;20459;-69
2021/11/05 15:32:34;;;;;;;18.60;16.67;;;10.60;99.90;;;;;;5000770;28;20478;-69
2021/11/05 15:35:00;;;;;;;17.40;15.70;;;10.50;99.90;;;;;;5008779;28;20462;-69
2021/11/05 15:37:27;;;;;;;18.47;16.67;;;10.50;99.90;;;;;;4999827;28;20447;-70
2021/11/05 15:39:54;;;;;;;19.10;17.07;;;10.50;99.90;;;;;;4998327;28;20459;-70
2021/11/05 15:42:21;;;;;;;18.60;16.70;;;10.40;99.90;;;;;;4998133;28;20843;-70
2021/11/05 15:44:48;;;;;;;18.30;16.33;;;10.30;99.90;;;;;;4998188;28;20826;-70
2021/11/05 15:47:16;;;;;;;19.23;17.17;;;10.30;99.90;;;;;;4997837;28;20478;-70
2021/11/05 15:49:43;;;;;;;18.63;16.80;;;10.30;99.90;;;;;;4998060;28;20458;-70
2021/11/05 15:52:09;;;;;;;15.97;14.30;;;10.20;99.90;;;;;;4998234;28;20478;-71
2021/11/05 15:54:37;;;;;;;17.10;15.40;;;10.20;99.90;;;;;;4998150;28;20497;-70
2021/11/05 15:57:03;;;;;;;17.50;15.67;;;10.20;99.90;;;;;;4997780;28;20454;-71
2021/11/05 15:59:31;;;;;;;17.83;16.03;;;10.20;99.90;;;;;;4997576;28;20459;-70
2021/11/05 16:01:59;;;;;;;17.60;15.83;;;10.20;99.90;;;;;;4997483;28;20482;-70
2021/11/05 16:04:27;;;;;;;18.83;16.27;;;10.00;99.90;;;;;;4997868;28;20457;-70
2021/11/05 16:06:54;;;;;;;16.30;14.60;;;10.00;99.90;;;;;;4997698;28;20460;-70
2021/11/05 16:09:21;;;;;;;16.50;14.90;;;10.00;99.90;;;;;;4997439;28;20465;-68
2021/11/05 16:11:48;;;;;;;16.90;15.20;;;10.10;99.90;;;;;;4997545;28;20482;-70
2021/11/05 16:14:15;;;;;;;17.47;15.77;;;10.10;99.90;;;;;;4997814;28;20960;-70
2021/11/05 16:16:44;;;;;;;18.83;16.93;;;10.00;99.90;;;;;;4997625;28;20451;-70
2021/11/05 16:19:11;;;;;;;18.63;16.80;;;10.10;99.90;;;;;;4997609;28;20457;-70
2021/11/05 16:21:41;;;;;;;18.07;16.37;;;10.00;99.90;;;;;;4997546;28;20825;-70
2021/11/05 16:24:13;;;;;;;17.07;15.37;;;10.00;99.90;;;;;;4997641;28;20438;-70
2021/11/05 16:26:40;;;;;;;17.57;15.87;;;10.00;99.90;;;;;;4997509;28;20507;-70
2021/11/05 16:29:07;;;;;;;16.50;14.80;;;10.00;99.90;;;;;;4997503;28;20865;-69
2021/11/05 16:31:33;;;;;;;18.90;16.90;;;10.00;99.90;;;;;;4997552;28;20481;-69
2021/11/05 16:34:00;;;;;;;18.43;16.53;;;9.90;99.90;;;;;;4997323;28;21054;-70
2021/11/05 16:36:27;;;;;;;17.87;15.97;;;9.90;99.90;;;;;;4997328;28;20454;-69
2021/11/05 16:38:55;;;;;;;19.07;17.03;;;9.90;99.90;;;;;;4996955;28;20788;-69
2021/11/05 16:41:22;;;;;;;19.07;17.07;;;9.90;99.90;;;;;;4995779;28;20471;-69
2021/11/05 16:43:50;;;;;;;21.47;19.10;;;9.90;99.90;;;;;;4998235;28;20482;-69
2021/11/05 16:46:20;;;;;;;20.37;17.90;;;9.90;99.90;;;;;;4997443;28;20458;-70
2021/11/05 16:48:49;;;;;;;19.37;17.10;;;9.90;99.90;;;;;;4996885;28;20467;-69
2021/11/05 16:51:16;;;;;;;21.30;19.00;;;9.80;99.90;;;;;;4996997;28;20537;-69
2021/11/05 16:53:43;;;;;;;19.77;17.23;;;9.90;99.90;;;;;;4996660;28;20454;-69
2021/11/05 16:56:12;;;;;;;18.03;16.10;;;9.90;99.90;;;;;;4996859;28;20455;-69
2021/11/05 16:58:39;;;;;;;18.73;16.73;;;9.90;99.90;;;;;;4996850;28;20467;-70
2021/11/05 17:01:06;;;;;;;18.40;16.50;;;10.00;99.90;;;;;;4996124;28;21036;-70
2021/11/05 17:03:33;;;;;;;21.83;19.50;;;10.00;99.90;;;;;;4996864;28;20459;-70
2021/11/05 17:06:00;;;;;;;25.70;20.20;;;10.10;99.90;;;;;;4996604;28;20453;-69
2021/11/05 17:08:27;;;;;;;21.80;19.53;;;10.00;99.90;;;;;;4996276;28;20481;-69
2021/11/05 17:10:54;;;;;;;19.47;17.27;;;10.00;99.90;;;;;;4996392;28;20478;-71
2021/11/05 17:13:22;;;;;;;20.87;18.50;;;10.00;99.90;;;;;;4998378;28;20814;-69
2021/11/05 17:15:49;;;;;;;22.67;18.33;;;10.00;99.90;;;;;;4997048;28;20458;-69
2021/11/05 17:18:16;;;;;;;20.73;18.63;;;10.00;99.90;;;;;;4996355;28;20533;-70
2021/11/05 17:20:43;;;;;;;22.17;18.67;;;10.00;99.90;;;;;;4996012;28;20506;-70
2021/11/05 17:23:09;;;;;;;22.60;20.00;;;9.90;99.90;;;;;;4996233;28;20455;-70
2021/11/05 17:25:37;;;;;;;19.50;17.43;;;9.90;99.90;;;;;;4996379;28;20466;-70
2021/11/05 17:28:05;;;;;;;20.97;18.73;;;9.90;99.90;;;;;;4996321;28;20478;-69
2021/11/05 17:30:33;;;;;;;20.03;17.83;;;9.90;99.90;;;;;;4995940;28;20509;-69
2021/11/05 17:33:00;;;;;;;19.17;17.17;;;9.90;99.90;;;;;;4995935;28;20453;-70
2021/11/05 17:35:27;;;;;;;18.97;16.60;;;9.80;99.90;;;;;;4995948;28;20458;-70
2021/11/05 17:37:54;;;;;;;19.57;16.03;;;9.80;99.90;;;;;;4995883;28;20450;-69
2021/11/05 17:40:21;;;;;;;16.80;15.20;;;9.70;99.90;;;;;;4995491;28;20461;-70
2021/11/05 17:42:48;;;;;;;17.07;15.27;;;9.60;99.90;;;;;;4995854;28;20465;-70
2021/11/05 17:45:16;;;;;;;17.07;15.27;;;9.60;99.90;;;;;;4995838;28;20460;-70
2021/11/05 17:47:44;;;;;;;17.17;15.37;;;9.50;99.90;;;;;;4995955;28;20478;-69
2021/11/05 17:50:13;;;;;;;17.87;16.07;;;9.50;99.90;;;;;;4996079;28;20950;-70
2021/11/05 17:52:40;;;;;;;18.07;16.27;;;9.40;99.90;;;;;;4995805;28;20474;-70